Latest Weather Observations for Liawenee

IDT60801

Issued at 2:01 pm EST Wednesday 5 August 2015 (issued every 30 minutes, with the page automatically refreshed every 10 minutes)

About weather observations | Map of weather stations | Latest weather observations for TAS | Other Formats
Station Details ID: 096033 Name: LIAWENEE Lat: -41.90 Lon: 146.67 Height: 1057.0 m
Data from the previous 72 hours. | See also: Recent months at Liawenee
Date/Time
EST
Temp
°C
App
Temp
°C
Dew
Point
Rel
Hum
%
Delta-T
°C
Wind Press
QNH
hPa
Press
MSL
hPa
Rain
since 9 am
mm
Dir
 
Spd
km/h
Gust
km/h
Spd
kts
Gust
kts
05/02:00pm -1.3 -9.0 -2.6 91 0.4 SW 28 35 15 19 999.9 1001.5 1.4
05/01:30pm -1.3 -9.0 -2.9 89 0.5 WSW 28 35 15 19 999.9 1001.5 0.8
05/01:00pm -1.5 -10.0 -3.5 86 0.6 WSW 32 43 17 23 1000.0 1001.6 0.8
05/12:30pm -1.6 -9.8 -3.8 85 0.7 WSW 30 41 16 22 1000.1 1001.7 0.8
05/12:00pm -1.9 -11.0 -3.8 87 0.6 WSW 35 46 19 25 1000.2 1001.8 0.6
05/11:31am -1.9 -11.5 -4.2 84 0.7 WSW 37 56 20 30 1000.2 1001.8 0.6
05/11:30am -1.8 -11.0 -4.1 84 0.7 WSW 35 50 19 27 1000.3 1001.9 0.6
05/11:17am -1.7 -9.5 -4.0 84 0.7 WSW 28 48 15 26 1000.3 1001.9 0.6
05/11:00am -1.5 -9.7 -3.7 85 0.7 WSW 30 39 16 21 1000.6 1002.2 0.6
05/10:30am -2.2 -11.8 -4.7 83 0.7 WSW 37 50 20 27 1000.4 1002.1 0.6
05/10:00am -2.8 -12.0 -4.8 86 0.5 WSW 35 48 19 26 1000.3 1001.9 0.2
05/09:30am -3.2 -13.2 -4.9 88 0.4 W 39 54 21 29 999.9 1001.5 0.0
05/09:00am -3.7 -12.4 -5.5 87 0.4 W 32 41 17 22 1000.1 1001.7 7.8
05/08:30am -3.7 -10.9 -4.9 91 0.2 W 24 32 13 17 1000.1 1001.7 7.6
05/08:00am -4.6 -11.8 -5.4 94 0.1 W 24 35 13 19 1000.1 1001.7 7.6
05/07:30am -4.9 -12.9 -6.0 92 0.1 W 28 41 15 22 999.3 1000.9 7.6
05/07:00am -5.0 -12.7 -6.1 92 0.1 W 26 33 14 18 999.7 1001.3 7.6
05/06:30am -4.9 -13.9 -6.3 90 0.2 W 33 46 18 25 999.5 1001.0 7.6
05/06:00am -4.6 -14.0 -6.0 90 0.3 W 35 50 19 27 998.9 1000.5 7.6
05/05:50am -4.3 -13.0 -5.5 91 0.2 W 32 52 17 28 998.5 1000.0 7.6
05/05:30am -4.4 -11.7 -5.8 90 0.3 W 24 32 13 17 998.5 1000.0 7.6
05/05:00am -4.4 -13.2 -5.8 90 0.3 W 32 54 17 29 998.1 999.7 7.6
05/04:59am -4.4 -12.8 -5.8 90 0.3 W 30 54 16 29 998.0 999.6 7.6
05/04:30am -4.4 -11.2 -5.4 93 0.1 W 22 33 12 18 997.5 999.0 7.6
05/04:02am -4.5 -12.5 -5.5 93 0.1 W 28 46 15 25 997.0 998.5 7.6
05/04:00am -4.4 -12.7 -5.4 93 0.1 W 30 46 16 25 996.9 998.4 7.6
05/03:31am -4.7 -14.8 -5.9 91 0.2 W 39 59 21 32 996.0 997.5 7.6
05/03:30am -4.7 -14.8 -5.9 91 0.2 W 39 56 21 30 996.0 997.5 7.6
05/03:14am -4.1 -14.5 -4.6 96 0.0 WNW 41 59 22 32 995.7 997.2 7.6
05/03:00am -3.5 -14.2 -4.3 94 0.1 WNW 43 56 23 30 995.6 997.1 7.6
05/02:30am -3.0 -12.6 -4.3 91 0.3 WNW 37 54 20 29 995.3 996.8 7.6
05/02:23am -2.8 -11.5 -3.8 93 0.2 WNW 33 52 18 28 995.6 997.1 7.6
05/02:00am -2.7 -12.5 -3.2 96 0.1 WNW 39 48 21 26 996.0 997.5 7.6
05/01:43am -2.1 -10.6 -2.9 94 0.2 WNW 32 50 17 27 996.0 997.5 7.6
05/01:30am -1.8 -9.0 -2.2 97 0.1 WNW 26 35 14 19 996.1 997.6 7.6
05/01:00am -1.6 -10.5 -2.2 96 0.1 WNW 35 50 19 27 995.7 997.2 7.6
05/12:30am -1.8 -12.0 -2.9 92 0.3 WNW 41 56 22 30 995.2 996.7 7.6
05/12:10am -1.4 -12.4 -2.4 93 0.3 WNW 46 65 25 35 995.3 996.8 7.4
05/12:00am -1.1 -11.5 -1.7 96 0.2 WNW 43 59 23 32 995.3 996.8 7.4
 
Date/Time
EST
Temp
°C
App
Temp
°C
Dew
Point
Rel
Hum
%
Delta-T
°C
Wind Press
QNH
hPa
Press
MSL
hPa
Rain
since 9 am
mm
Dir
 
Spd
km/h
Gust
km/h
Spd
kts
Gust
kts
04/11:31pm -1.0 -9.9 -1.7 95 0.2 WNW 35 54 19 29 995.2 996.7 7.4
04/11:30pm -1.0 -9.5 -1.7 95 0.2 WNW 33 48 18 26 995.3 996.8 7.4
04/11:00pm -0.9 -10.1 -1.7 94 0.3 WNW 37 50 20 27 995.9 997.4 7.4
04/10:30pm -0.8 -9.6 -1.4 96 0.2 WNW 35 52 19 28 996.2 997.7 7.0
04/10:00pm -0.8 -10.4 -1.5 95 0.2 WNW 39 52 21 28 996.9 998.4 6.4
04/09:47pm -0.4 -8.8 -0.7 98 0.1 WNW 33 54 18 29 997.0 998.5 6.2
04/09:30pm -0.1 -9.6 -0.5 97 0.1 W 39 54 21 29 997.8 999.3 5.8
04/09:12pm 0.1 -8.6 -0.2 98 0.1 W 35 54 19 29 997.7 999.2 5.0
04/09:11pm 0.2 -8.0 0.1 99 0.0 W 33 50 18 27 997.7 999.2 5.0
04/09:00pm 0.2 -6.7 0.1 99 0.0 W 26 37 14 20 998.0 999.6 4.8
04/08:30pm 0.1 -10.1 -0.2 98 0.1 W 43 63 23 34 998.2 999.8 4.8
04/08:11pm 0.6 -8.4 0.2 97 0.2 W 37 56 20 30 998.5 1000.0 4.6
04/08:00pm 0.6 -8.4 0.2 97 0.2 W 37 54 20 29 998.7 1000.2 4.4
04/07:30pm 0.9 -6.4 0.3 96 0.2 WNW 28 46 15 25 998.8 1000.4 4.0
04/07:10pm 0.7 -7.0 0.1 96 0.2 WNW 30 48 16 26 999.2 1000.8 3.4
04/07:00pm 0.7 -7.0 0.1 96 0.2 WNW 30 44 16 24 999.5 1001.0 3.2
04/06:38pm 1.1 -7.2 -0.1 92 0.5 WNW 33 52 18 28 999.7 1001.3 3.0
04/06:30pm 1.1 -7.0 -0.2 91 0.5 WNW 32 48 17 26 999.6 1001.1 3.0
04/06:00pm 0.7 -7.6 -0.6 91 0.5 WNW 33 54 18 29 1000.0 1001.6 3.0
04/05:30pm 1.1 -6.6 -0.2 91 0.5 NW 30 50 16 27 1000.3 1001.9 2.8
04/05:06pm 0.8 -7.5 -0.5 91 0.5 WNW 33 52 18 28 1001.0 1002.6 2.8
04/05:00pm 0.8 -7.9 -0.5 91 0.5 WNW 35 52 19 28 1001.1 1002.7 2.8
04/04:30pm 0.9 -7.8 -0.2 92 0.4 WNW 35 56 19 30 1001.7 1003.3 2.8
04/04:00pm 1.2 -7.1 -0.1 91 0.5 NW 33 54 18 29 1002.3 1004.0 2.8
04/03:30pm 1.2 -7.5 -0.4 89 0.6 WNW 35 63 19 34 1002.9 1004.6 2.8
04/03:07pm 1.3 -6.0 -0.2 90 0.6 WNW 28 46 15 25 1003.7 1005.4 2.8
04/03:00pm 1.0 -7.1 -0.1 92 0.4 WNW 32 46 17 25 1003.9 1005.6 2.8
04/02:40pm 1.7 -6.4 -0.4 86 0.8 WNW 32 50 17 27 1004.2 1005.9 2.8
04/02:30pm 1.7 -6.6 -0.4 86 0.8 WNW 33 48 18 26 1004.5 1006.3 2.8
04/02:00pm 1.6 -5.7 -0.3 87 0.7 WNW 28 46 15 25 1004.9 1006.6 2.8
04/01:30pm 1.8 -6.0 -0.6 84 0.9 WNW 30 50 16 27 1005.3 1007.1 2.8
04/01:05pm 1.3 -6.5 -0.6 87 0.7 WNW 30 50 16 27 1006.0 1007.7 2.8
04/01:00pm 1.1 -6.3 -0.8 87 0.7 WNW 28 43 15 23 1006.3 1008.1 2.8
04/12:30pm 1.1 -7.1 -1.0 86 0.8 WNW 32 50 17 27 1007.0 1008.8 2.8
04/12:20pm 0.9 -7.3 -1.2 86 0.8 WNW 32 50 17 27 1007.2 1009.0 2.8
04/12:00pm 0.8 -7.1 -1.3 86 0.8 WNW 30 44 16 24 1007.8 1009.6 2.0
04/11:30am 0.6 -7.6 -1.3 87 0.8 WNW 32 44 17 24 1008.5 1010.4 1.8
04/11:00am 0.2 -7.7 -1.7 87 0.7 W 30 44 16 24 1009.2 1011.0 1.2
04/10:32am -0.2 -7.8 -2.1 87 0.7 WNW 28 46 15 25 1009.3 1011.2 1.0
04/10:30am -0.2 -7.8 -1.9 88 0.6 WNW 28 43 15 23 1009.3 1011.2 0.8
04/10:00am -0.8 -8.7 -1.9 92 0.4 WNW 30 48 16 26 1009.8 1011.6 0.6
04/09:51am -1.0 -8.6 -2.3 91 0.4 WNW 28 48 15 26 1009.9 1011.7 0.6
04/09:30am -0.9 -8.1 -1.9 93 0.3 WNW 26 43 14 23 1010.1 1012.0 0.4
04/09:00am -1.9 -9.2 -2.9 93 0.3 WNW 26 41 14 22 1010.4 1012.3 2.8
04/08:30am -2.5 -9.5 -3.3 94 0.2 WNW 24 33 13 18 1010.8 1012.6 2.8
04/08:00am -2.8 -8.9 -3.5 95 0.1 W 19 32 10 17 1011.1 1013.0 2.8
04/07:30am -3.1 -8.8 -3.8 95 0.1 W 17 26 9 14 1011.2 1013.1 2.8
04/07:00am -3.0 -9.3 -3.7 95 0.1 WNW 20 30 11 16 1011.4 1013.3 2.8
04/06:30am -3.6 -9.0 -4.1 96 0.0 WNW 15 22 8 12 1011.5 1013.4 2.8
04/06:00am -3.8 -9.6 -4.5 95 0.1 W 17 24 9 13 1011.6 1013.5 2.8
04/05:30am -4.0 -8.7 -4.7 95 0.1 W 11 17 6 9 1011.8 1013.7 2.8
04/05:00am -3.6 -10.7 -4.4 94 0.1 W 24 32 13 17 1011.6 1013.5 2.8
04/04:30am -3.3 -11.1 -4.0 95 0.1 W 28 33 15 18 1011.5 1013.4 2.8
04/04:00am -3.6 -11.8 -4.3 95 0.1 W 30 37 16 20 1011.6 1013.5 2.8
04/03:30am -4.0 -11.9 -4.7 95 0.1 WSW 28 37 15 20 1011.8 1013.7 2.8
04/03:00am -4.0 -12.3 -4.5 96 0.0 W 30 35 16 19 1012.1 1014.0 2.8
04/02:30am -4.2 -12.8 -4.6 97 0.0 W 32 39 17 21 1012.5 1014.5 2.8
04/02:00am -4.3 -12.2 -4.7 97 -0.1 W 28 33 15 18 1012.7 1014.7 2.8
04/01:30am -4.9 -11.1 -5.3 97 -0.1 W 19 24 10 13 1012.9 1014.8 2.8
04/01:00am -5.2 -11.1 -5.6 97 -0.1 W 17 20 9 11 1013.2 1015.1 2.8
04/12:30am -5.5 -11.8 -5.9 97 -0.1 W 19 24 10 13 1013.6 1015.6 2.8
04/12:00am -6.3 -11.2 -6.7 97 -0.1 W 11 17 6 9 1013.9 1015.8 2.6
 
Date/Time
EST
Temp
°C
App
Temp
°C
Dew
Point
Rel
Hum
%
Delta-T
°C
Wind Press
QNH
hPa
Press
MSL
hPa
Rain
since 9 am
mm
Dir
 
Spd
km/h
Gust
km/h
Spd
kts
Gust
kts
03/11:30pm -7.3 -11.9 -7.8 96 -0.1 W 9 11 5 6 1013.9 1015.8 2.6
03/11:00pm -7.2 -10.8 -7.9 95 -0.1 W 4 9 2 5 1014.0 1015.9 2.6
03/10:30pm -6.5 -11.0 -7.0 96 -0.1 SW 9 11 5 6 1014.3 1016.3 2.6
03/10:00pm -6.0 -11.2 -6.4 97 -0.1 WSW 13 17 7 9 1014.4 1016.4 2.6
03/09:30pm -4.7 -9.8 -5.1 97 -0.1 WSW 13 20 7 11 1014.5 1016.5 2.6
03/09:00pm -4.0 -9.8 -4.4 97 0.0 WSW 17 19 9 10 1014.2 1016.2 2.6
03/08:30pm -3.9 -9.7 -4.3 97 0.0 WSW 17 19 9 10 1014.0 1015.9 2.6
03/08:00pm -4.0 -10.7 -4.4 97 0.0 WSW 22 30 12 16 1013.2 1015.1 2.6
03/07:30pm -3.8 -10.1 -4.2 97 0.0 WSW 20 30 11 16 1013.0 1014.9 2.6
03/07:00pm -3.9 -12.5 -4.3 97 0.0 SW 32 46 17 25 1011.8 1013.7 2.6
03/06:30pm -3.9 -11.4 -4.3 97 0.0 SW 26 41 14 22 1011.1 1013.0 2.6
03/06:00pm -3.9 -13.8 -4.2 98 -0.1 SW 39 56 21 30 1009.4 1011.3 2.6
03/05:30pm -3.6 -12.7 -3.9 98 -0.1 SW 35 46 19 25 1009.5 1011.4 2.6
03/05:00pm -3.3 -12.0 -3.6 98 0.0 SW 33 52 18 28 1009.6 1011.5 2.6
03/04:30pm -3.2 -11.7 -3.5 98 0.0 SW 32 43 17 23 1009.3 1011.2 2.6
03/04:00pm -3.3 -13.5 -3.6 98 0.0 WSW 41 52 22 28 1008.2 1010.0 2.4
03/03:30pm -3.3 -13.5 -3.6 98 0.0 SW 41 63 22 34 1007.8 1009.6 2.4
03/03:04pm -3.2 -13.1 -3.5 98 0.0 SW 39 57 21 31 1007.1 1008.9 2.4
03/03:00pm -3.3 -13.2 -3.6 98 0.0 SW 39 54 21 29 1006.8 1008.5 2.4
03/02:45pm -3.4 -15.4 -3.7 98 0.0 SW 50 70 27 38 1006.3 1008.1 2.4
03/02:41pm -3.4 -15.0 -3.7 98 0.0 SW 48 70 26 38 1006.2 1008.0 2.4
03/02:33pm -3.3 -13.2 -3.6 98 0.0 SW 39 57 21 31 1006.0 1007.7 2.4
03/02:30pm -3.4 -12.9 -3.7 98 0.0 SW 37 54 20 29 1005.9 1007.6 2.4
03/02:11pm -3.3 -13.9 -3.6 98 0.0 SW 43 65 23 35 1005.4 1007.2 2.2
03/02:00pm -3.2 -14.4 -3.5 98 0.0 SW 46 61 25 33 1005.0 1006.7 2.2
03/01:52pm -3.0 -12.1 -3.3 98 0.0 SW 35 54 19 29 1004.7 1006.4 2.2
03/01:30pm -3.0 -13.2 -3.3 98 0.0 SW 41 57 22 31 1004.0 1005.7 2.0
03/01:24pm -3.0 -14.2 -3.3 98 0.0 SW 46 65 25 35 1004.0 1005.7 2.0
03/01:00pm -3.0 -14.2 -3.3 98 0.0 SW 46 61 25 33 1003.4 1005.1 1.8
03/12:44pm -3.1 -12.9 -3.2 99 -0.1 WSW 39 67 21 36 1003.1 1004.8 1.8
03/12:30pm -3.5 -14.1 -3.8 98 -0.1 WSW 43 54 23 29 1002.8 1004.4 1.4
03/12:00pm -3.5 -12.6 -3.8 98 -0.1 WSW 35 54 19 29 1002.1 1003.8 1.2
03/11:37am -3.9 -14.6 -4.2 98 -0.1 SW 43 65 23 35 1002.1 1003.8 0.8
03/11:30am -4.0 -14.3 -4.3 98 -0.1 SW 41 52 22 28 1002.1 1003.8 0.8
03/11:12am -4.1 -13.3 -4.4 98 -0.1 WSW 35 54 19 29 1001.7 1003.3 0.8
03/11:00am -4.0 -13.2 -4.3 98 -0.1 WSW 35 44 19 24 1001.4 1003.1 0.6
03/10:37am -4.5 -13.2 -4.9 97 -0.1 WSW 32 50 17 27 1001.1 1002.7 0.4
03/10:30am -4.4 -13.2 -4.7 98 -0.1 WSW 33 43 18 23 1001.0 1002.6 0.4
03/10:02am -4.6 -14.2 -5.0 97 -0.1 WSW 37 57 20 31 1000.3 1001.9 0.4
03/10:00am -4.6 -13.9 -5.0 97 -0.1 WSW 35 52 19 28 1000.3 1001.9 0.4
03/09:30am -4.8 -14.5 -5.2 97 -0.1 WSW 37 52 20 28 999.8 1001.4 0.0
03/09:02am -5.2 -14.1 -5.6 97 -0.1 WSW 33 52 18 28 999.2 1000.8 0.0
03/09:00am -5.1 -14.0 -5.5 97 -0.1 WSW 33 43 18 23 999.2 1000.8 5.8
03/08:30am -5.1 -13.8 -5.5 97 -0.1 WSW 32 41 17 22 998.9 1000.5 5.6
03/08:00am -5.3 -12.5 -5.7 97 -0.1 WSW 24 33 13 18 998.5 1000.0 5.6
03/07:52am -5.3 -13.7 -5.7 97 -0.1 WSW 30 48 16 26 998.5 1000.0 5.6
03/07:30am -5.4 -12.7 -5.8 97 -0.1 WSW 24 39 13 21 997.9 999.4 5.6
03/07:00am -5.7 -14.5 -6.2 96 -0.1 WSW 32 43 17 23 996.8 998.3 5.6
03/06:30am -5.7 -14.1 -6.2 96 -0.1 WSW 30 41 16 22 996.1 997.6 5.6
03/06:00am -5.6 -14.0 -6.1 96 -0.1 WSW 30 43 16 23 995.6 997.1 5.6
03/05:38am -5.6 -13.7 -6.3 95 0.0 WSW 28 57 15 31 995.0 996.5 5.6
03/05:30am -5.4 -12.3 -5.9 96 -0.1 WSW 22 32 12 17 995.0 996.5 5.6
03/05:00am -5.2 -11.7 -5.6 97 -0.1 WSW 20 37 11 20 994.7 996.1 5.6
03/04:42am -5.2 -14.1 -5.6 97 -0.1 WSW 33 52 18 28 993.7 995.1 5.6
03/04:30am -5.3 -16.4 -5.8 96 -0.1 WSW 44 57 24 31 994.4 995.8 5.6
03/04:21am -5.0 -14.3 -5.5 96 0.0 WSW 35 56 19 30 994.0 995.5 5.6
03/04:00am -4.7 -13.4 -5.1 97 -0.1 W 32 44 17 24 993.9 995.3 5.6
03/03:30am -4.6 -14.3 -5.3 95 0.0 W 37 50 20 27 993.5 994.9 5.6
03/03:05am -4.3 -12.6 -4.7 97 -0.1 WSW 30 59 16 32 993.2 994.7 5.6
03/03:00am -4.4 -10.8 -4.8 97 -0.1 WSW 20 35 11 19 993.5 994.9 5.4
03/02:30am -4.4 -12.0 -5.1 95 0.0 W 26 33 14 18 993.0 994.4 5.4
03/02:00am -3.8 -14.1 -4.1 98 -0.1 W 41 59 22 32 993.2 994.7 5.4
03/01:55am -3.8 -14.1 -4.1 98 -0.1 W 41 59 22 32 993.2 994.7 5.4
03/01:48am -3.9 -13.1 -4.3 97 0.0 W 35 52 19 28 993.0 994.4 5.4
03/01:30am -3.9 -10.2 -4.3 97 0.0 WNW 20 32 11 17 992.6 994.0 5.4
03/01:00am -3.9 -11.0 -4.3 97 0.0 W 24 35 13 19 993.0 994.4 5.4
03/12:33am -3.8 -15.1 -4.2 97 0.0 WSW 46 67 25 36 993.6 995.0 5.4
03/12:30am -3.5 -14.3 -3.8 98 -0.1 WSW 44 61 24 33 993.6 995.0 5.4
03/12:22am -3.3 -12.4 -3.6 98 0.0 WSW 35 54 19 29 993.4 994.8 5.4
03/12:00am -2.9 -10.6 -3.3 97 0.0 WNW 28 44 15 24 992.7 994.1 5.2
 
Date/Time
EST
Temp
°C
App
Temp
°C
Dew
Point
Rel
Hum
%
Delta-T
°C
Wind Press
QNH
hPa
Press
MSL
hPa
Rain
since 9 am
mm
Dir
 
Spd
km/h
Gust
km/h
Spd
kts
Gust
kts
02/11:30pm -2.7 -10.4 -2.8 99 -0.1 W 28 35 15 19 992.8 994.2 5.0
02/11:00pm -2.9 -10.2 -3.2 98 0.0 WNW 26 35 14 19 992.7 994.1 4.8
02/10:30pm -3.4 -12.5 -3.7 98 0.0 WNW 35 54 19 29 993.2 994.7 4.8
02/10:16pm -3.5 -13.8 -3.9 97 0.0 WNW 41 61 22 33 993.1 994.6 4.8
02/10:14pm -3.5 -13.8 -3.8 98 -0.1 WNW 41 59 22 32 993.2 994.7 4.8
02/10:00pm -3.3 -16.4 -3.6 98 0.0 W 56 80 30 43 993.8 995.2 4.8
02/09:54pm -3.0 -14.2 -3.4 97 0.0 WNW 46 80 25 43 993.8 995.2 4.8
02/09:52pm -3.0 -13.2 -3.4 97 0.0 WNW 41 76 22 41 993.9 995.3 4.8
02/09:51pm -2.9 -12.7 -3.3 97 0.0 WNW 39 76 21 41 994.0 995.5 4.8
02/09:31pm -2.3 -11.3 -3.0 95 0.1 WNW 35 54 19 29 993.6 995.0 4.8
02/09:30pm -2.2 -11.2 -2.9 95 0.1 WNW 35 52 19 28 993.6 995.0 4.8
02/09:12pm -2.4 -10.1 -2.9 96 0.1 WNW 28 59 15 32 993.8 995.2 4.8
02/09:00pm -2.7 -8.9 -3.2 96 0.1 NW 20 35 11 19 993.7 995.1 4.8
02/08:30pm -3.2 -9.9 -3.9 95 0.1 WNW 22 37 12 20 994.1 995.6 4.6
02/08:00pm -2.8 -9.0 -3.3 96 0.0 NW 20 32 11 17 994.8 996.3 4.6
02/07:30pm -3.0 -11.1 -3.4 97 0.0 WNW 30 50 16 27 995.1 996.6 4.6
02/07:05pm -3.5 -12.1 -4.0 96 0.0 WNW 32 50 17 27 995.1 996.6 4.6
02/07:00pm -3.4 -11.6 -3.8 97 0.0 WNW 30 41 16 22 995.1 996.6 4.6
02/06:30pm -3.1 -11.6 -3.5 97 0.0 W 32 48 17 26 995.1 996.6 4.6
02/06:23pm -2.8 -10.5 -3.2 97 0.0 W 28 43 15 23 995.0 996.5 4.6
02/06:00pm -2.9 -8.2 -3.2 98 0.0 WNW 15 22 8 12 994.9 996.4 4.4
02/05:30pm -3.0 -10.0 -3.3 98 0.0 W 24 37 13 20 995.1 996.6 4.0
02/05:00pm -3.2 -10.7 -4.5 91 0.3 W 26 39 14 21 994.8 996.3 4.0
02/04:30pm -2.6 -10.7 -3.4 94 0.2 W 30 43 16 23 994.7 996.1 4.0
02/04:00pm -2.3 -11.0 -3.4 92 0.3 W 33 50 18 27 994.6 996.0 4.0
02/03:41pm -1.8 -10.5 -3.1 91 0.4 W 33 52 18 28 994.1 995.6 4.0
02/03:30pm -1.6 -11.3 -2.6 93 0.3 W 39 50 21 27 994.2 995.7 4.0
02/03:07pm -1.3 -8.9 -2.0 95 0.2 W 28 46 15 25 994.1 995.6 4.0
02/03:00pm -1.3 -8.5 -2.0 95 0.2 W 26 41 14 22 994.5 995.9 4.0
02/02:30pm -1.4 -10.7 -2.0 96 0.2 WSW 37 50 20 27 993.8 995.2 3.2

Other Formats:

Comma delimited format used in spreadsheet applications
http://www.bom.gov.au/fwo/IDT60801/IDT60801.95959.axf

JavaScript Object Notation format (JSON) in row-major order
http://www.bom.gov.au/fwo/IDT60801/IDT60801.95959.json